Time;durP1;ratioP1;P1;durP2;ratioP2;P2;SDS_P1;SDS_P2;PMS_P1;PMS_P2;Temp;Humidity;BMP_temperature;BMP_pressure;BME280_temperature;BME280_humidity;BME280_pressure;Samples;Min_cycle;Max_cycle;Signal;HPM_P1;HPM_P2
2022/06/10 00:01:09;;;;;;;0.75;0.43;;;;;;;28.04;31.48;97161.09;5047524;28;21370;-31
2022/06/10 00:03:36;;;;;;;1.55;0.55;;;;;;;28.03;31.73;97168.13;5044358;28;20609;-30
2022/06/10 00:06:04;;;;;;;1.40;0.68;;;;;;;28.04;31.81;97158.47;5045025;28;20032;-31
2022/06/10 00:08:32;;;;;;;0.70;0.55;;;;;;;28.04;31.87;97158.47;5048108;28;20102;-33
2022/06/10 00:10:57;;;;;;;1.15;0.40;;;;;;;28.04;31.78;97164.56;5044845;28;20024;-31
2022/06/10 00:13:24;;;;;;;0.98;0.50;;;;;;;28.03;31.74;97162.00;5045710;28;20097;-30
2022/06/10 00:15:54;;;;;;;0.50;0.40;;;;;;;28.03;32.14;97165.50;5046515;28;21203;-27
2022/06/10 00:18:19;;;;;;;1.95;0.60;;;;;;;28.03;31.77;97162.00;5044475;28;20017;-30
2022/06/10 00:20:45;;;;;;;1.08;0.43;;;;;;;28.03;31.92;97162.88;5045269;28;20020;-30
2022/06/10 00:23:10;;;;;;;1.08;0.52;;;;;;;28.02;31.84;97155.91;5046512;28;20035;-29
2022/06/10 00:25:36;;;;;;;0.63;0.55;;;;;;;28.04;31.82;97163.72;5038121;28;20704;-29
2022/06/10 00:28:02;;;;;;;1.02;0.40;;;;;;;28.03;31.64;97162.00;5030142;28;20140;-31
2022/06/10 00:30:29;;;;;;;2.72;0.55;;;;;;;28.04;31.76;97169.00;5027194;28;20016;-31
2022/06/10 00:32:57;;;;;;;0.73;0.45;;;;;;;28.04;31.86;97172.47;5045745;28;20031;-30
2022/06/10 00:35:23;;;;;;;1.35;0.60;;;;;;;28.05;31.80;97170.69;5049672;28;20032;-30
2022/06/10 00:37:48;;;;;;;1.27;0.50;;;;;;;28.05;31.73;97173.31;5043838;28;20025;-30
2022/06/10 00:40:22;;;;;;;0.93;0.47;;;;;;;28.03;31.50;97168.13;5047644;28;20027;-29
2022/06/10 00:42:48;;;;;;;4.45;0.60;;;;;;;28.04;31.76;97169.84;5041142;28;20029;-32
2022/06/10 00:45:51;;;;;;;0.77;0.60;;;;;;;28.04;31.82;97174.28;5047314;28;20031;-28
2022/06/10 00:48:19;;;;;;;0.70;0.45;;;;;;;28.04;31.76;97169.00;5044920;28;20116;-29
2022/06/10 00:50:45;;;;;;;0.55;0.45;;;;;;;28.04;31.74;97174.28;5031999;28;20488;-30
2022/06/10 00:53:12;;;;;;;0.28;0.20;;;;;;;28.04;31.83;97169.00;5050282;28;20099;-28
2022/06/10 00:55:37;;;;;;;1.08;0.50;;;;;;;28.03;31.65;97172.53;5046585;28;20040;-30
2022/06/10 00:58:06;;;;;;;1.05;0.40;;;;;;;28.03;31.90;97172.53;5050091;28;20431;-30
2022/06/10 01:00:31;;;;;;;1.90;0.47;;;;;;;28.04;31.71;97174.28;5030667;28;20027;-29
2022/06/10 01:02:57;;;;;;;0.50;0.30;;;;;;;28.03;31.70;97167.28;5044862;28;20032;-30
2022/06/10 01:05:24;;;;;;;1.13;0.43;;;;;;;28.03;31.81;97172.53;5041403;28;20056;-33
2022/06/10 01:08:11;;;;;;;1.77;0.45;;;;;;;28.03;31.83;97172.53;5041574;28;20032;-31
2022/06/10 01:11:14;;;;;;;0.50;0.30;;;;;;;28.03;31.86;97172.53;5042152;28;20123;-29
2022/06/10 01:13:42;;;;;;;1.15;0.40;;;;;;;28.02;31.83;97176.13;5043289;28;20040;-37
2022/06/10 01:16:34;;;;;;;1.42;0.35;;;;;;;28.01;31.75;97174.44;5046891;28;20348;-30
2022/06/10 01:19:23;;;;;;;0.50;0.30;;;;;;;28.01;31.79;97175.28;5043070;28;20072;-30
2022/06/10 01:22:13;;;;;;;0.73;0.45;;;;;;;28.02;31.86;97173.50;5045726;28;20507;-30
2022/06/10 01:24:55;;;;;;;0.98;0.40;;;;;;;28.01;31.75;97170.03;5039617;28;20024;-31
2022/06/10 01:27:48;;;;;;;1.00;0.50;;;;;;;28.01;31.98;97171.81;5032734;28;20043;-30
2022/06/10 01:30:15;;;;;;;0.93;0.50;;;;;;;28.01;31.85;97180.56;5044264;28;20029;-30
2022/06/10 01:32:43;;;;;;;0.32;0.30;;;;;;;28.00;31.87;97176.22;5045189;28;20032;-32
2022/06/10 01:35:17;;;;;;;1.50;0.52;;;;;;;28.01;31.82;97177.06;5028428;28;20041;-31
2022/06/10 01:37:57;;;;;;;0.52;0.40;;;;;;;27.99;31.83;97174.53;5041510;28;20119;-30
2022/06/10 01:41:06;;;;;;;1.25;0.47;;;;;;;28.00;31.78;97183.28;5038471;28;20032;-30
2022/06/10 01:43:44;;;;;;;0.75;0.40;;;;;;;28.00;31.97;97178.84;5023028;28;20052;-30
2022/06/10 01:46:20;;;;;;;1.02;0.38;;;;;;;28.01;31.85;97192.88;5042910;28;20029;-30
2022/06/10 01:49:12;;;;;;;1.45;0.73;;;;;;;27.99;31.80;97179.78;5030874;28;20036;-32
2022/06/10 01:51:51;;;;;;;0.93;0.63;;;;;;;28.00;31.87;97193.81;5039600;28;20036;-30
2022/06/10 01:54:25;;;;;;;0.73;0.38;;;;;;;27.99;31.89;97184.22;5040305;28;20051;-28
2022/06/10 01:56:52;;;;;;;0.95;0.47;;;;;;;27.98;31.80;97179.88;5043892;28;20020;-29
2022/06/10 01:59:27;;;;;;;0.60;0.20;;;;;;;27.99;31.80;97186.84;5022769;28;20059;-32
2022/06/10 02:01:56;;;;;;;0.70;0.40;;;;;;;27.98;31.88;97190.41;5033481;28;20028;-29
2022/06/10 02:04:30;;;;;;;2.28;0.40;;;;;;;27.99;32.14;97192.13;5026402;28;20139;-33
2022/06/10 02:06:58;;;;;;;3.38;0.52;;;;;;;27.98;31.93;97190.41;5027800;28;22435;-30
2022/06/10 02:09:27;;;;;;;4.85;0.50;;;;;;;27.98;32.03;97185.13;5040930;28;20244;-30
2022/06/10 02:11:58;;;;;;;1.27;0.40;;;;;;;27.99;31.98;97184.22;5020771;28;20032;-30
2022/06/10 02:14:30;;;;;;;1.08;0.30;;;;;;;27.98;32.00;97185.13;5036317;28;20033;-29
2022/06/10 02:16:56;;;;;;;1.05;0.30;;;;;;;27.99;32.06;97192.13;5026472;28;20059;-32
2022/06/10 02:19:31;;;;;;;0.57;0.40;;;;;;;27.98;32.02;97198.31;5048394;28;21259;-34
2022/06/10 02:22:08;;;;;;;0.22;0.22;;;;;;;27.99;31.88;97200.03;5046734;28;20023;-31
2022/06/10 02:24:45;;;;;;;0.45;0.40;;;;;;;27.99;31.90;97192.13;5040548;28;20074;-28
2022/06/10 02:27:16;;;;;;;0.32;0.30;;;;;;;27.98;31.99;97198.31;5049605;28;20028;-32
2022/06/10 02:30:15;;;;;;;1.27;0.50;;;;;;;27.98;31.98;97198.31;5051692;28;20629;-29
2022/06/10 02:32:41;;;;;;;1.02;0.38;;;;;;;27.98;32.00;97203.56;5048096;28;20151;-28
2022/06/10 02:35:07;;;;;;;1.10;0.30;;;;;;;27.98;31.99;97200.94;5046659;28;20028;-28
2022/06/10 02:37:38;;;;;;;0.95;0.38;;;;;;;27.98;31.85;97200.94;5045737;28;20036;-28
2022/06/10 02:40:19;;;;;;;0.65;0.35;;;;;;;27.97;32.05;97208.00;5046055;28;20689;-30
2022/06/10 02:43:05;;;;;;;0.60;0.43;;;;;;;27.97;31.85;97210.66;5036088;28;20033;-31
2022/06/10 02:45:48;;;;;;;0.40;0.30;;;;;;;27.94;31.87;97209.94;5047710;28;20088;-31
2022/06/10 02:48:28;;;;;;;1.17;0.50;;;;;;;27.96;32.05;97202.81;5046107;28;20025;-31
2022/06/10 02:50:53;;;;;;;0.57;0.43;;;;;;;27.96;31.89;97213.34;5033729;28;20030;-30
2022/06/10 02:53:19;;;;;;;0.80;0.40;;;;;;;27.95;31.97;97215.13;5044590;28;20040;-32
2022/06/10 02:55:44;;;;;;;0.30;0.30;;;;;;;27.95;32.05;97217.75;5049269;28;20690;-29
2022/06/10 03:01:13;;;;;;;0.55;0.47;;;;;;;27.94;31.93;97215.22;5044341;28;20217;-33
2022/06/10 03:04:13;;;;;;;2.85;0.60;;;;;;;27.95;31.89;97222.19;5053652;28;20060;-32
2022/06/10 03:07:01;;;;;;;0.68;0.30;;;;;;;27.92;32.03;97224.06;5046494;28;20561;-29
2022/06/10 03:09:58;;;;;;;0.63;0.30;;;;;;;27.92;32.11;97229.31;5048455;28;20025;-32
2022/06/10 03:12:33;;;;;;;0.30;0.22;;;;;;;27.92;32.43;97229.31;5040094;28;20029;-31
2022/06/10 03:15:10;;;;;;;1.77;0.60;;;;;;;27.92;32.26;97231.97;5037803;28;20449;-33
2022/06/10 03:17:37;;;;;;;2.83;0.40;;;;;;;27.93;32.13;97230.19;5037830;28;20587;-31
2022/06/10 03:20:17;;;;;;;1.15;0.40;;;;;;;27.92;32.22;97231.97;5025637;28;20040;-30
2022/06/10 03:23:08;;;;;;;2.22;0.40;;;;;;;27.91;32.28;97235.53;5043102;28;20555;-32
2022/06/10 03:25:37;;;;;;;0.93;0.40;;;;;;;27.92;32.06;97234.59;5041796;28;20032;-30
2022/06/10 03:28:25;;;;;;;0.30;0.30;;;;;;;27.91;32.14;97242.56;5051274;28;20064;-29
2022/06/10 03:31:08;;;;;;;0.40;0.30;;;;;;;27.90;32.30;97241.75;5052226;28;20415;-30
2022/06/10 03:33:39;;;;;;;0.32;0.25;;;;;;;27.90;31.91;97244.38;5039825;28;20032;-33
2022/06/10 03:36:08;;;;;;;2.47;0.40;;;;;;;27.91;32.30;97247.84;5035229;28;20051;-32
2022/06/10 03:38:33;;;;;;;1.17;0.40;;;;;;;27.89;32.14;97242.66;5050168;28;20036;-33
2022/06/10 03:41:01;;;;;;;0.75;0.20;;;;;;;27.89;32.05;97247.91;5052374;28;20035;-30
2022/06/10 03:43:26;;;;;;;0.52;0.20;;;;;;;27.89;32.16;97247.91;5051737;28;20055;-30
2022/06/10 03:45:56;;;;;;;3.42;0.35;;;;;;;27.88;32.17;97254.13;5053533;28;20509;-29
2022/06/10 03:48:22;;;;;;;0.75;0.38;;;;;;;27.89;32.13;97250.56;5036172;28;20542;-29
2022/06/10 03:50:47;;;;;;;0.40;0.20;;;;;;;27.89;32.03;97258.47;5050633;28;20032;-29
2022/06/10 03:53:15;;;;;;;0.30;0.30;;;;;;;27.89;32.33;97255.81;5045548;28;21178;-32
2022/06/10 03:55:40;;;;;;;0.30;0.25;;;;;;;27.89;32.22;97249.72;5042640;28;20029;-31
2022/06/10 03:58:06;;;;;;;1.08;0.30;;;;;;;27.89;32.27;97260.25;5050911;28;20044;-29
2022/06/10 04:00:31;;;;;;;0.35;0.30;;;;;;;27.89;32.15;97261.09;5044246;28;20063;-37
2022/06/10 04:02:57;;;;;;;0.88;0.40;;;;;;;27.89;32.17;97271.63;5044182;28;20029;-30
2022/06/10 04:05:22;;;;;;;1.52;0.45;;;;;;;27.89;32.09;97262.91;5044302;28;20044;-31
2022/06/10 04:07:48;;;;;;;0.25;0.20;;;;;;;27.90;32.16;97267.22;5037167;28;20867;-30
2022/06/10 04:10:18;;;;;;;1.00;0.30;;;;;;;27.90;32.39;97277.75;5038168;28;20802;-35
2022/06/10 04:12:43;;;;;;;0.30;0.20;;;;;;;27.89;32.19;97273.44;5049609;28;20028;-28
2022/06/10 04:15:10;;;;;;;1.83;0.30;;;;;;;27.89;32.17;97276.06;5040635;28;20724;-32
2022/06/10 04:17:35;;;;;;;1.10;0.30;;;;;;;27.89;32.28;97276.91;5042223;28;20292;-30
2022/06/10 04:20:00;;;;;;;0.60;0.40;;;;;;;27.90;32.08;97280.38;5048104;28;20050;-30
2022/06/10 04:22:26;;;;;;;0.68;0.40;;;;;;;27.89;32.26;97276.91;5046535;28;20071;-30
2022/06/10 04:24:52;;;;;;;0.38;0.20;;;;;;;27.89;32.26;97276.06;5040478;28;20036;-31
2022/06/10 04:27:17;;;;;;;0.90;0.30;;;;;;;27.89;32.20;97279.53;5042306;28;20086;-31
2022/06/10 04:29:43;;;;;;;1.20;0.38;;;;;;;27.89;32.25;97278.69;5041322;28;20110;-32
2022/06/10 04:32:08;;;;;;;0.20;0.20;;;;;;;27.89;32.29;97282.16;5042542;28;20033;-29
2022/06/10 04:34:34;;;;;;;1.00;0.20;;;;;;;27.90;32.04;97285.66;5034195;28;20036;-31
2022/06/10 04:36:59;;;;;;;0.45;0.30;;;;;;;27.89;32.29;97281.34;5043326;28;20033;-30
2022/06/10 04:39:25;;;;;;;0.40;0.30;;;;;;;27.89;32.14;97276.91;5048047;28;20042;-30
2022/06/10 04:41:50;;;;;;;0.28;0.10;;;;;;;27.89;32.16;97287.44;5046822;28;20020;-32
2022/06/10 04:44:15;;;;;;;0.93;0.30;;;;;;;27.89;32.26;97287.44;5049332;28;20793;-30
2022/06/10 04:46:42;;;;;;;0.38;0.30;;;;;;;27.89;32.28;97286.59;5053084;28;20478;-30
2022/06/10 04:49:07;;;;;;;0.75;0.35;;;;;;;27.89;32.26;97274.25;5052166;28;20522;-31
2022/06/10 04:51:33;;;;;;;0.30;0.20;;;;;;;27.89;32.16;97284.78;5051053;28;20024;-31
2022/06/10 04:53:59;;;;;;;0.50;0.30;;;;;;;27.89;32.03;97286.59;5052283;28;20021;-32
2022/06/10 04:56:24;;;;;;;0.35;0.35;;;;;;;27.90;32.11;97289.16;5055349;28;20074;-32
2022/06/10 04:58:50;;;;;;;0.63;0.40;;;;;;;27.90;32.27;97288.28;5052667;28;20028;-33
2022/06/10 05:01:15;;;;;;;0.20;0.20;;;;;;;27.90;32.19;97289.16;5052138;28;20498;-31
2022/06/10 05:03:41;;;;;;;0.35;0.25;;;;;;;27.87;32.21;97283.19;5051318;28;20911;-31
2022/06/10 05:06:07;;;;;;;0.45;0.30;;;;;;;27.90;32.38;97293.56;5036997;28;20112;-31
2022/06/10 05:08:32;;;;;;;0.43;0.20;;;;;;;27.90;31.82;97290.94;5049878;28;20675;-32
2022/06/10 05:10:58;;;;;;;0.52;0.20;;;;;;;27.91;32.11;97295.25;5047879;28;20029;-31
2022/06/10 05:13:23;;;;;;;1.05;0.30;;;;;;;27.89;32.00;97292.69;5053810;28;20025;-33
2022/06/10 05:15:49;;;;;;;0.85;0.30;;;;;;;27.90;32.41;97293.56;5043239;28;20028;-30
2022/06/10 05:18:15;;;;;;;0.50;0.20;;;;;;;27.91;32.33;97297.88;5044350;28;20523;-32
2022/06/10 05:20:41;;;;;;;0.93;0.40;;;;;;;27.90;32.16;97296.19;5043005;28;20037;-30
2022/06/10 05:23:11;;;;;;;0.30;0.30;;;;;;;27.90;32.20;97297.06;5039279;28;20068;-30
2022/06/10 05:25:37;;;;;;;0.25;0.20;;;;;;;27.89;32.15;97303.22;5038461;28;20024;-31
2022/06/10 05:28:03;;;;;;;0.55;0.10;;;;;;;27.91;32.18;97301.38;5044401;28;20015;-30
2022/06/10 05:30:30;;;;;;;1.45;0.30;;;;;;;27.90;32.36;97299.69;5040838;28;20604;-36
2022/06/10 05:32:56;;;;;;;0.32;0.30;;;;;;;27.91;32.22;97306.66;5040378;28;20641;-33
2022/06/10 05:35:22;;;;;;;0.50;0.20;;;;;;;27.90;32.25;97302.31;5047429;28;20037;-33
2022/06/10 05:37:47;;;;;;;0.63;0.30;;;;;;;27.91;32.17;97301.38;5042792;28;20025;-32
2022/06/10 05:40:13;;;;;;;0.20;0.20;;;;;;;27.90;32.09;97302.31;5044824;28;20020;-29
2022/06/10 05:42:38;;;;;;;0.43;0.20;;;;;;;27.91;32.15;97306.66;5040701;28;21975;-30
2022/06/10 05:45:04;;;;;;;0.30;0.30;;;;;;;27.89;32.12;97303.22;5046668;28;20531;-33
2022/06/10 05:47:33;;;;;;;0.10;0.10;;;;;;;27.91;32.09;97311.06;5049512;28;20028;-31
2022/06/10 05:49:59;;;;;;;0.30;0.20;;;;;;;27.89;32.13;97311.13;5050252;28;20047;-30
2022/06/10 05:52:26;;;;;;;0.57;0.20;;;;;;;27.91;32.08;97311.91;5048035;28;20086;-30
2022/06/10 05:54:52;;;;;;;0.68;0.30;;;;;;;27.91;32.25;97311.06;5045323;28;20448;-34
2022/06/10 05:57:18;;;;;;;1.17;0.30;;;;;;;27.89;32.02;97319.03;5051042;28;20032;-33
2022/06/10 05:59:43;;;;;;;0.35;0.35;;;;;;;27.90;32.25;97320.75;5050129;28;20020;-31
2022/06/10 06:02:09;;;;;;;0.93;0.30;;;;;;;27.90;32.16;97318.13;5044155;28;20039;-29
2022/06/10 06:04:35;;;;;;;0.20;0.20;;;;;;;27.91;32.26;97324.22;5049330;28;20082;-29
2022/06/10 06:07:00;;;;;;;0.73;0.30;;;;;;;27.90;32.26;97320.75;5049738;28;20143;-35
2022/06/10 06:09:26;;;;;;;0.50;0.20;;;;;;;27.91;32.17;97322.47;5047333;28;20643;-29
2022/06/10 06:11:54;;;;;;;1.52;0.30;;;;;;;27.91;32.27;97326.84;5049599;28;20124;-30
2022/06/10 06:14:20;;;;;;;0.20;0.20;;;;;;;27.91;32.22;97326.84;5045390;28;20032;-30
2022/06/10 06:16:50;;;;;;;0.50;0.30;;;;;;;27.90;32.41;97326.03;5044718;28;20593;-30
2022/06/10 06:19:16;;;;;;;0.63;0.20;;;;;;;27.90;32.05;97331.28;5043909;28;20063;-29
2022/06/10 06:21:41;;;;;;;27.55;8.30;;;;;;;27.90;32.12;97320.75;5052407;28;20550;-30
2022/06/10 06:24:07;;;;;;;39.13;10.18;;;;;;;27.91;32.09;97333.00;5045992;28;20079;-36
2022/06/10 06:26:32;;;;;;;7.63;2.83;;;;;;;27.91;32.23;97330.34;5037901;28;20035;-35
2022/06/10 06:28:57;;;;;;;6.88;2.33;;;;;;;27.91;32.14;97325.09;5038428;28;20025;-35
2022/06/10 06:31:23;;;;;;;13.63;4.35;;;;;;;27.92;32.25;97324.16;5038036;28;20683;-31
2022/06/10 06:33:48;;;;;;;8.27;3.05;;;;;;;27.92;31.90;97329.41;5044664;28;20519;-30
2022/06/10 06:36:16;;;;;;;10.55;3.53;;;;;;;27.93;32.23;97330.28;5041257;28;20047;-33
2022/06/10 06:38:41;;;;;;;11.30;3.40;;;;;;;27.94;32.28;97328.47;5045587;28;20021;-30
2022/06/10 06:41:07;;;;;;;12.95;3.58;;;;;;;27.94;32.21;97325.84;5041582;28;20024;-30
2022/06/10 06:43:32;;;;;;;15.00;3.42;;;;;;;27.95;32.31;97333.66;5040290;28;22160;-30
2022/06/10 06:45:58;;;;;;;8.18;3.17;;;;;;;27.97;32.24;97328.31;5041775;28;20032;-30
2022/06/10 06:48:23;;;;;;;10.73;3.33;;;;;;;27.97;32.21;97336.22;5047542;28;20031;-32
2022/06/10 06:50:49;;;;;;;12.75;3.17;;;;;;;27.99;32.17;97344.91;5043736;28;20040;-36
2022/06/10 06:53:14;;;;;;;10.75;3.40;;;;;;;28.00;32.05;97341.34;5038984;28;20605;-34
2022/06/10 06:55:41;;;;;;;8.63;2.95;;;;;;;28.01;32.07;97341.25;5049478;28;20408;-30
2022/06/10 06:58:07;;;;;;;7.22;2.90;;;;;;;28.02;32.22;97334.19;5047403;28;20140;-35
2022/06/10 07:00:32;;;;;;;7.53;3.05;;;;;;;28.03;31.86;97333.25;5032543;28;20029;-33
2022/06/10 07:02:58;;;;;;;6.65;3.00;;;;;;;28.03;32.00;97336.75;5039549;28;20153;-30
2022/06/10 07:05:23;;;;;;;8.48;3.28;;;;;;;28.04;32.17;97327.06;5042982;28;20020;-32
2022/06/10 07:07:49;;;;;;;7.32;3.00;;;;;;;28.05;32.18;97323.50;5042086;28;21813;-33
2022/06/10 07:10:15;;;;;;;9.73;3.00;;;;;;;28.07;32.06;97332.16;5042033;28;20090;-31
2022/06/10 07:12:41;;;;;;;8.10;3.03;;;;;;;28.09;32.03;97332.94;5041715;28;20060;-29
2022/06/10 07:15:06;;;;;;;11.45;3.03;;;;;;;28.11;32.16;97336.31;5047083;28;20529;-30
2022/06/10 07:17:32;;;;;;;7.45;2.72;;;;;;;28.12;32.18;97335.41;5052727;28;20028;-32
2022/06/10 07:19:59;;;;;;;6.20;2.53;;;;;;;28.14;32.06;97337.94;5051062;28;20455;-29
2022/06/10 07:22:26;;;;;;;7.25;2.80;;;;;;;28.14;32.13;97341.44;5055362;28;20035;-30
2022/06/10 07:24:52;;;;;;;5.25;2.38;;;;;;;28.15;31.94;97340.50;5053615;28;20032;-31
2022/06/10 07:27:17;;;;;;;10.95;2.65;;;;;;;28.16;32.01;97334.31;5054758;28;20029;-35
2022/06/10 07:29:42;;;;;;;7.97;2.60;;;;;;;28.17;31.94;97343.06;5049562;28;20055;-31
2022/06/10 07:32:08;;;;;;;9.10;2.97;;;;;;;28.18;31.95;97339.47;5054247;28;20028;-33
2022/06/10 07:34:33;;;;;;;8.02;2.60;;;;;;;28.20;32.02;97340.25;5050791;28;20249;-35
2022/06/10 07:36:59;;;;;;;10.38;2.55;;;;;;;28.21;31.96;97343.72;5050702;28;20050;-35
2022/06/10 07:39:24;;;;;;;6.22;2.50;;;;;;;28.23;32.09;97336.59;5048937;28;20028;-30
2022/06/10 07:42:01;;;;;;;6.35;2.55;;;;;;;28.23;32.16;97331.34;5047503;28;20118;-30
2022/06/10 07:44:29;;;;;;;5.97;2.20;;;;;;;28.22;31.92;97329.63;5049981;28;20028;-29
2022/06/10 07:46:55;;;;;;;4.85;1.92;;;;;;;28.23;31.13;97333.97;5051453;28;20033;-30
2022/06/10 07:49:20;;;;;;;5.10;1.80;;;;;;;28.20;30.26;97336.75;5047487;28;20081;-29
2022/06/10 07:51:46;;;;;;;8.75;1.85;;;;;;;28.17;29.62;97330.75;5044377;28;20027;-30
2022/06/10 07:54:11;;;;;;;5.00;1.63;;;;;;;28.14;29.20;97335.31;5042389;28;20032;-31
2022/06/10 07:56:37;;;;;;;10.00;2.28;;;;;;;28.07;28.96;97329.50;5041457;28;21660;-30
2022/06/10 07:59:03;;;;;;;8.95;2.25;;;;;;;28.03;28.71;97330.63;5044452;28;20027;-30
2022/06/10 08:01:29;;;;;;;7.07;2.13;;;;;;;27.96;28.36;97334.53;5040097;28;20154;-32
2022/06/10 08:03:58;;;;;;;7.10;1.95;;;;;;;27.92;28.48;97329.41;5041611;28;20045;-30
2022/06/10 08:06:24;;;;;;;7.65;2.10;;;;;;;27.87;28.70;97331.44;5044026;28;20154;-29
2022/06/10 08:08:49;;;;;;;8.00;1.95;;;;;;;27.85;28.54;97328.06;5036128;28;20044;-33
2022/06/10 08:11:15;;;;;;;8.35;2.33;;;;;;;27.82;28.50;97328.22;5041944;28;20033;-29
2022/06/10 08:13:40;;;;;;;5.10;1.80;;;;;;;27.79;28.10;97333.63;5042398;28;20028;-30
2022/06/10 08:16:06;;;;;;;7.07;2.17;;;;;;;27.73;27.65;97328.72;5042698;28;20101;-29
2022/06/10 08:18:33;;;;;;;9.60;1.98;;;;;;;27.68;27.92;97330.75;5042380;28;20475;-29
2022/06/10 08:23:43;;;;;;;10.77;2.47;;;;;;;27.54;27.78;97324.38;5046088;28;20059;-29
2022/06/10 08:26:08;;;;;;;11.38;2.70;;;;;;;27.50;27.58;97323.66;5036326;28;21713;-29
2022/06/10 08:28:35;;;;;;;9.15;2.10;;;;;;;27.49;27.60;97321.09;5042837;28;20108;-30
2022/06/10 08:31:01;;;;;;;9.70;2.10;;;;;;;27.47;27.59;97322.97;5046148;28;20040;-34
2022/06/10 08:33:26;;;;;;;7.10;2.13;;;;;;;27.45;27.41;97319.56;5040759;28;20032;-30
2022/06/10 08:35:51;;;;;;;14.75;2.30;;;;;;;27.45;27.61;97320.44;5044126;28;20040;-30
2022/06/10 08:38:17;;;;;;;12.88;2.15;;;;;;;27.43;27.52;97322.31;5034004;28;20062;-30
2022/06/10 08:40:48;;;;;;;9.75;2.35;;;;;;;27.41;27.62;97323.31;5046545;28;20359;-30
2022/06/10 08:43:19;;;;;;;6.80;1.98;;;;;;;27.40;27.65;97325.09;5046159;28;20053;-30
2022/06/10 08:45:48;;;;;;;13.98;2.40;;;;;;;27.38;27.39;97329.56;5046844;28;20107;-34
2022/06/10 08:48:37;;;;;;;13.43;2.30;;;;;;;27.36;27.85;97321.75;5016028;28;20024;-30
2022/06/10 08:51:11;;;;;;;8.48;1.98;;;;;;;27.35;27.48;97320.03;5041787;28;20028;-33
2022/06/10 08:53:44;;;;;;;10.18;2.13;;;;;;;27.38;27.46;97325.16;5039586;28;20056;-29
2022/06/10 08:56:22;;;;;;;6.70;1.90;;;;;;;27.39;27.88;97320.75;5037996;28;20045;-31
2022/06/10 08:59:01;;;;;;;5.95;1.75;;;;;;;27.41;28.10;97318.06;5043571;28;20025;-37
2022/06/10 09:01:29;;;;;;;10.75;2.05;;;;;;;27.43;28.13;97324.06;5037073;28;20506;-29
2022/06/10 09:03:57;;;;;;;6.68;1.95;;;;;;;27.44;28.04;97318.72;5036717;28;20059;-31
2022/06/10 09:06:28;;;;;;;7.20;1.88;;;;;;;27.48;28.18;97322.03;5034692;28;20036;-31
2022/06/10 09:08:54;;;;;;;10.45;2.15;;;;;;;27.50;28.08;97317.56;5040529;28;20592;-30
2022/06/10 09:11:37;;;;;;;9.32;2.20;;;;;;;27.52;28.11;97327.09;5020878;28;20036;-31
2022/06/10 09:14:16;;;;;;;8.77;1.92;;;;;;;27.55;28.26;97326.06;5019434;28;20032;-31
2022/06/10 09:16:46;;;;;;;10.23;2.40;;;;;;;27.56;27.87;97325.13;5037473;28;20036;-34
2022/06/10 09:19:38;;;;;;;8.02;1.80;;;;;;;27.58;27.81;97325.06;5035219;28;20517;-31
2022/06/10 09:22:40;;;;;;;6.47;2.08;;;;;;;27.59;27.90;97327.63;5047589;28;20033;-30
2022/06/10 09:25:08;;;;;;;16.20;2.30;;;;;;;27.60;27.77;97328.44;5040752;28;20044;-28
2022/06/10 09:27:35;;;;;;;7.30;1.67;;;;;;;27.59;27.67;97321.50;5038495;28;20029;-35
2022/06/10 09:30:03;;;;;;;7.65;1.58;;;;;;;27.61;27.71;97333.66;5039590;28;21725;-28
2022/06/10 09:33:03;;;;;;;8.07;1.83;;;;;;;27.62;27.77;97327.47;5046139;28;20119;-30
2022/06/10 09:35:28;;;;;;;7.30;1.85;;;;;;;27.64;27.81;97330.03;5049552;28;20033;-28
2022/06/10 09:38:14;;;;;;;6.78;2.00;;;;;;;27.63;27.84;97328.31;5045682;28;20041;-32
2022/06/10 09:41:16;;;;;;;11.52;2.05;;;;;;;27.65;27.62;97326.50;5044515;28;20029;-30
2022/06/10 09:44:03;;;;;;;3.95;1.50;;;;;;;27.67;28.85;97335.13;5037838;28;20043;-29
2022/06/10 09:46:28;;;;;;;9.75;2.10;;;;;;;27.64;28.37;97332.66;5034875;28;20056;-35
2022/06/10 09:49:12;;;;;;;8.43;2.22;;;;;;;27.61;28.64;97325.78;5041739;28;20521;-32
2022/06/10 09:51:52;;;;;;;5.20;1.65;;;;;;;27.63;29.20;97326.56;5048631;28;20032;-33
2022/06/10 09:54:42;;;;;;;5.47;1.60;;;;;;;27.67;28.78;97319.34;5048216;28;20503;-30
2022/06/10 09:57:35;;;;;;;6.28;1.60;;;;;;;27.71;28.39;97314.75;5042578;28;20025;-32
2022/06/10 10:00:18;;;;;;;4.82;1.38;;;;;;;27.85;28.12;97322.78;5047897;28;20024;-33
2022/06/10 10:03:02;;;;;;;3.95;1.30;;;;;;;27.95;27.86;97317.03;5024750;28;20036;-30
2022/06/10 10:05:44;;;;;;;7.57;1.70;;;;;;;28.08;27.92;97320.69;5038107;28;20020;-34
2022/06/10 10:08:27;;;;;;;3.42;1.48;;;;;;;28.17;27.10;97316.69;5037388;28;20178;-29
2022/06/10 10:10:59;;;;;;;5.90;1.95;;;;;;;28.30;26.99;97316.94;5040295;28;20107;-30
2022/06/10 10:13:54;;;;;;;6.90;1.55;;;;;;;28.41;26.86;97314.53;5035772;28;20029;-32
2022/06/10 10:16:25;;;;;;;6.78;1.67;;;;;;;28.53;26.41;97320.06;5010444;28;20043;-30
2022/06/10 10:19:09;;;;;;;8.43;1.85;;;;;;;28.63;26.35;97305.41;5018661;28;20177;-30
2022/06/10 10:21:56;;;;;;;6.28;1.50;;;;;;;28.74;26.42;97306.56;5018223;28;20115;-33
2022/06/10 10:24:24;;;;;;;6.03;1.48;;;;;;;28.84;26.98;97310.41;5016328;28;20029;-31
2022/06/10 10:26:51;;;;;;;3.30;1.40;;;;;;;28.93;26.36;97309.91;5002208;28;20033;-31
2022/06/10 10:29:17;;;;;;;6.43;1.75;;;;;;;29.02;25.80;97305.03;5022000;28;20687;-30
2022/06/10 10:32:21;;;;;;;6.55;1.58;;;;;;;29.11;25.99;97300.97;5032787;28;20056;-29
2022/06/10 10:34:50;;;;;;;6.57;1.58;;;;;;;29.19;26.53;97299.59;5040349;28;20020;-30
2022/06/10 10:37:21;;;;;;;10.32;2.42;;;;;;;29.24;25.99;97301.94;5042134;28;20504;-34
2022/06/10 10:39:59;;;;;;;16.35;2.22;;;;;;;29.28;26.14;97299.97;5041009;28;20059;-31
2022/06/10 10:42:30;;;;;;;8.55;2.10;;;;;;;29.28;25.99;97297.34;5038251;28;20033;-30
2022/06/10 10:45:16;;;;;;;14.20;2.03;;;;;;;29.29;26.43;97288.50;5016616;28;20045;-33
2022/06/10 10:47:48;;;;;;;11.95;2.13;;;;;;;29.28;26.38;97294.69;5042592;28;21713;-33
2022/06/10 10:50:29;;;;;;;8.35;1.70;;;;;;;29.26;26.24;97299.22;5021505;28;20024;-30
2022/06/10 10:52:54;;;;;;;6.07;1.33;;;;;;;29.23;26.66;97294.97;5038046;28;20036;-30
2022/06/10 10:55:24;;;;;;;4.22;1.35;;;;;;;29.20;26.56;97289.88;5033657;28;20028;-34
2022/06/10 10:58:10;;;;;;;5.43;2.08;;;;;;;29.17;26.53;97298.84;5044175;28;20020;-31
2022/06/10 11:00:41;;;;;;;9.55;1.88;;;;;;;29.13;26.44;97294.66;5020422;28;20036;-33
2022/06/10 11:03:06;;;;;;;6.38;1.95;;;;;;;29.09;26.53;97290.50;5031653;28;20119;-30
2022/06/10 11:05:37;;;;;;;6.55;1.90;;;;;;;29.06;26.58;97296.00;5017552;28;20090;-35
2022/06/10 11:08:34;;;;;;;3.97;2.05;;;;;;;29.02;26.54;97305.84;5033924;28;20052;-31
2022/06/10 11:11:00;;;;;;;5.43;1.83;;;;;;;28.97;26.54;97299.16;5027915;28;20044;-34
2022/06/10 11:13:32;;;;;;;9.43;1.90;;;;;;;28.94;26.56;97305.44;5037460;28;20044;-32
2022/06/10 11:16:32;;;;;;;11.18;2.33;;;;;;;28.90;26.61;97299.50;5036698;28;20059;-30
2022/06/10 11:19:00;;;;;;;12.05;2.15;;;;;;;28.85;26.88;97295.41;5036953;28;20020;-30
2022/06/10 11:21:25;;;;;;;10.27;2.17;;;;;;;28.81;26.92;97289.47;5039896;28;20029;-31
2022/06/10 11:23:52;;;;;;;4.78;2.10;;;;;;;28.79;27.14;97293.97;5048914;28;20040;-31
2022/06/10 11:26:20;;;;;;;9.23;2.08;;;;;;;28.76;27.01;97291.53;5033148;28;20632;-35
2022/06/10 11:28:46;;;;;;;9.80;2.10;;;;;;;28.75;27.12;97292.47;5039293;28;20518;-31
2022/06/10 11:31:31;;;;;;;11.05;2.15;;;;;;;28.72;27.46;97290.00;5000483;28;20028;-30
2022/06/10 11:33:58;;;;;;;6.80;2.33;;;;;;;28.69;27.97;97294.50;5004786;28;20033;-30
2022/06/10 11:36:26;;;;;;;7.80;2.90;;;;;;;28.67;28.23;97293.75;4994585;28;20033;-31
2022/06/10 11:39:27;;;;;;;15.77;3.00;;;;;;;28.66;28.24;97291.19;5009433;28;20082;-34
2022/06/10 11:42:00;;;;;;;9.80;3.13;;;;;;;28.64;28.48;97295.72;5006989;28;21434;-31
2022/06/10 11:44:25;;;;;;;10.57;2.70;;;;;;;28.60;28.50;97281.84;5007164;28;20036;-33
2022/06/10 11:47:25;;;;;;;9.43;2.60;;;;;;;28.61;28.60;97288.84;4980703;28;20029;-31
2022/06/10 11:50:11;;;;;;;15.73;3.08;;;;;;;28.59;28.82;97284.56;5001665;28;20040;-33
2022/06/10 11:52:50;;;;;;;7.90;2.85;;;;;;;28.58;28.98;97278.47;5004672;28;20032;-34
2022/06/10 11:55:18;;;;;;;19.17;4.18;;;;;;;28.56;28.83;97275.03;5002888;28;20043;-31
2022/06/10 12:01:05;;;;;;;11.02;3.53;;;;;;;28.55;29.00;97278.63;5000949;28;20412;-36